ID Time Temp Humidity Light PM2.5 PM10 Voltage Extra Firmware Position Fcnt TTN version Gateways Distance RSSI LSNR Radiosettings
2026-05-03 22:36:12 15.0625°C -3.1875% 3.33V v4 52.0948 / 5.10275 20975 ttn.v3 3.43km -109 -6.25 868.1MHz, SF9BW125, 4/5CR
2026-05-03 22:20:17 15.1875°C -1.875% 3.33V v4 52.0948 / 5.10275 20974 ttn.v3 - -125 -12.25 867.1MHz, SF9BW125, 4/5CR
2026-05-03 21:48:26 15.375°C -4.875% 3.33V v4 52.0948 / 5.10275 20972 ttn.v3 3.43km -110 0.25 867.9MHz, SF9BW125, 4/5CR
2026-05-03 21:16:36 15.6875°C -3.375% 3.33V v4 52.0948 / 5.10275 20970 ttn.v3 3.43km -105 -9.25 867.7MHz, SF9BW125, 4/5CR
2026-05-03 19:25:07 16.6875°C 110.938% 3.33V v4 52.0948 / 5.10275 20963 ttn.v3 3.43km -107 -8.25 868.1MHz, SF9BW125, 4/5CR
2026-05-03 19:09:12 16.4375°C 110.312% 3.33V v4 52.0948 / 5.10275 20962 ttn.v3 3.43km -104 -4.25 867.9MHz, SF9BW125, 4/5CR
2026-05-03 18:37:20 17.0625°C 107.188% 3.33V v4 52.0948 / 5.10275 20960 ttn.v3 3.43km -103 -9.5 867.7MHz, SF9BW125, 4/5CR
2026-05-03 17:49:34 15.3125°C -5.375% 3.33V v4 52.0948 / 5.10275 20957 ttn.v3 3.43km -107 -9.5 868.1MHz, SF9BW125, 4/5CR
2026-05-03 17:33:39 15.125°C 117.875% 3.33V v4 52.0948 / 5.10275 20956 ttn.v3 3.43km -107 -7.25 867.3MHz, SF9BW125, 4/5CR
2026-05-03 17:01:48 16.3125°C 99% 3.33V v4 52.0948 / 5.10275 20954 ttn.v3 3.43km -107 -11.25 867.1MHz, SF9BW125, 4/5CR
2026-05-03 16:29:57 17.3125°C 104.812% 3.33V v4 52.0948 / 5.10275 20952 ttn.v3 3.43km -105 -7.25 867.9MHz, SF9BW125, 4/5CR
2026-05-03 15:58:05 17.5°C 108.688% 3.33V v4 52.0948 / 5.10275 20950 ttn.v3 3.43km -107 -3.75 867.7MHz, SF9BW125, 4/5CR
- -127 -11.25 867.7MHz, SF9BW125, 4/5CR
2026-05-03 14:54:22 16.6875°C 112.25% 3.33V v4 52.0948 / 5.10275 20946 ttn.v3 3.43km -103 -8.25 867.3MHz, SF9BW125, 4/5CR
2026-05-03 14:38:26 16.625°C 109.062% 3.33V v4 52.0948 / 5.10275 20945 ttn.v3 3.43km -107 -5 868.1MHz, SF9BW125, 4/5CR
2026-05-03 14:22:31 16.75°C 108% 3.33V v4 52.0948 / 5.10275 20944 ttn.v3 3.43km -109 -5 867.1MHz, SF9BW125, 4/5CR
2026-05-03 13:18:48 17.5°C 106.562% 3.33V v4 52.0948 / 5.10275 20940 ttn.v3 3.43km -101 -5.75 867.7MHz, SF9BW125, 4/5CR
2026-05-03 11:27:14 18.375°C 96.25% 3.33V v4 52.0948 / 5.10275 20933 ttn.v3 3.43km -103 -4.75 868.1MHz, SF9BW125, 4/5CR
- -122 -7.25 868.1MHz, SF9BW125, 4/5CR
2026-05-03 11:11:18 18.1875°C 91.9375% 3.33V v4 52.0948 / 5.10275 20932 ttn.v3 3.43km -110 -1.75 867.9MHz, SF9BW125, 4/5CR
- -120 -7.5 867.9MHz, SF9BW125, 4/5CR
2026-05-03 10:39:26 18°C 95.8125% 3.33V v4 52.0948 / 5.10275 20930 ttn.v3 3.43km -105 -5.75 867.7MHz, SF9BW125, 4/5CR
2026-05-03 09:51:38 17.5625°C 102.75% 3.33V v4 52.0948 / 5.10275 20927 ttn.v3 3.43km -104 -5 868.1MHz, SF9BW125, 4/5CR
2026-05-03 09:03:51 16.5°C 104.5% 3.33V v4 52.0948 / 5.10275 20924 ttn.v3 3.43km -109 -3.5 867.1MHz, SF9BW125, 4/5CR
2026-05-03 08:32:00 16.0625°C 115.188% 3.33V v4 52.0948 / 5.10275 20922 ttn.v3 3.43km -109 -0.25 867.9MHz, SF9BW125, 4/5CR
2026-05-03 08:17:44 15.5625°C 111.75% 3.33V v4 52.0948 / 5.10275 20921 ttn.v3 3.43km -104 -6.25 868.1MHz, SF12BW125, 4/5CR
- -123 -14.75 868.1MHz, SF12BW125, 4/5CR
2026-05-03 06:24:45 14.9375°C 5.125% 3.33V v4 52.0949 / 5.10278 20914 ttn.v3 3.428km -105 -6.25 867.1MHz, SF9BW125, 4/5CR
2026-05-03 05:52:54 14.875°C -1.25% 3.33V v4 52.0949 / 5.10278 20912 ttn.v3 3.428km -110 -4.5 867.9MHz, SF9BW125, 4/5CR
- -123 -11 867.9MHz, SF9BW125, 4/5CR
2026-05-03 05:21:04 14.9375°C 1.25% 3.33V v4 52.0949 / 5.10278 20910 ttn.v3 3.428km -105 -5 867.7MHz, SF9BW125, 4/5CR
2026-05-03 04:33:19 14.8125°C -1.75% 3.34V v4 52.0949 / 5.10278 20907 ttn.v3 3.428km -95 -14.25 868.5MHz, SF9BW125, 4/5CR
2026-05-03 03:45:34 14.75°C 5.1875% 3.33V v4 52.0949 / 5.10278 20904 ttn.v3 3.428km -110 -10.75 867.1MHz, SF9BW125, 4/5CR
2026-05-03 03:29:39 14.75°C 6.125% 3.33V v4 52.0949 / 5.10278 20903 ttn.v3 3.428km -111 -11.25 868.1MHz, SF9BW125, 4/5CR
2026-05-03 03:13:44 14.8125°C 7.5% 3.33V v4 52.0949 / 5.10278 20902 ttn.v3 3.428km -105 -3 867.9MHz, SF9BW125, 4/5CR
2026-05-03 02:41:53 14.9375°C 5% 3.33V v4 52.0949 / 5.10278 20900 ttn.v3 3.428km -104 -8.25 867.7MHz, SF9BW125, 4/5CR
2026-05-03 01:54:08 15.0625°C 3.5625% 3.33V v4 52.0949 / 5.10278 20897 ttn.v3 3.428km -102 -11.75 868.1MHz, SF9BW125, 4/5CR
2026-05-03 00:34:32 15.375°C 113.5% 3.33V v4 52.0949 / 5.10278 20892 ttn.v3 3.428km -108 -3.75 867.9MHz, SF9BW125, 4/5CR
2026-05-03 00:02:42 15.25°C 100.312% 3.33V v4 52.0949 / 5.10278 20890 ttn.v3 3.428km -105 -8 867.7MHz, SF9BW125, 4/5CR
2026-05-02 23:14:54 18.25°C 57.75% 3.33V v4 52.0949 / 5.10278 20887 ttn.v3 3.428km -97 -11.25 868.3MHz, SF9BW125, 4/5CR
2026-05-02 22:58:58 18.25°C 57.125% 3.33V v4 52.0949 / 5.10278 20886 ttn.v3 - -120 -12.5 867.3MHz, SF9BW125, 4/5CR
2026-05-02 22:43:02 18.4375°C 56.9375% 3.33V v4 52.0949 / 5.10278 20885 ttn.v3 3.428km -103 -7.75 868.1MHz, SF9BW125, 4/5CR
2026-05-02 22:27:06 18.6875°C 57.9375% 3.33V v4 52.0949 / 5.10278 20884 ttn.v3 - -117 -12.8 867.1MHz, SF9BW125, 4/5CR
2026-05-02 21:55:13 18.9375°C 58% 3.33V v4 52.0949 / 5.10278 20882 ttn.v3 3.428km -107 -11.5 867.9MHz, SF9BW125, 4/5CR
2026-05-02 21:07:23 19.875°C 55.8125% 3.33V v4 52.0949 / 5.10278 20879 ttn.v3 3.428km -109 -11.25 868.1MHz, SF9BW125, 4/5CR
2026-05-02 20:19:31 21.5625°C 53.75% 3.33V v4 52.0949 / 5.10278 20876 ttn.v3 3.428km -109 -6 867.3MHz, SF9BW125, 4/5CR
2026-05-02 19:15:40 24.1875°C 51.4375% 3.33V v4 52.0949 / 5.10278 20872 ttn.v3 3.428km -110 -3 867.9MHz, SF9BW125, 4/5CR
2026-05-02 18:43:42 25.3125°C 47.6875% 3.33V v4 52.0949 / 5.10278 20870 ttn.v3 3.428km -109 -6.5 867.7MHz, SF9BW125, 4/5CR
- -122 -10 867.7MHz, SF9BW125, 4/5CR
2026-05-02 17:07:41 28.8125°C 44.125% 3.33V v4 52.0949 / 5.10278 20864 ttn.v3 3.428km -110 -4 867.1MHz, SF9BW125, 4/5CR
2026-05-02 16:35:41 27.9375°C 50.875% 3.33V v4 52.0949 / 5.10278 20862 ttn.v3 3.428km -108 -2.75 867.9MHz, SF9BW125, 4/5CR
2026-05-02 16:19:41 27.4375°C 49.875% 3.33V v4 52.0949 / 5.10278 20861 ttn.v3 3.428km -107 -9.5 868.1MHz, SF9BW125, 4/5CR
2026-05-02 14:59:49 23.75°C 60.4375% 3.33V v4 52.0949 / 5.10278 20856 ttn.v3 - -118 -13 867.3MHz, SF9BW125, 4/5CR
2026-05-02 14:27:52 23.625°C 60.5625% 3.33V v4 52.0949 / 5.10278 20854 ttn.v3 3.428km -109 -3.5 867.1MHz, SF9BW125, 4/5CR
- -122 -8 867.1MHz, SF9BW125, 4/5CR
2026-05-02 13:24:01 22.5°C 63.6875% 3.33V v4 52.0949 / 5.10278 20850 ttn.v3 3.428km -104 -7.5 867.7MHz, SF9BW125, 4/5CR
2026-05-02 12:20:11 21.6875°C 65.625% 3.33V v4 52.0949 / 5.10278 20846 ttn.v3 3.428km -104 -10 867.3MHz, SF9BW125, 4/5CR
2026-05-02 11:48:17 20.4375°C 69.625% 3.33V v4 52.0949 / 5.10278 20844 ttn.v3 3.428km -109 -4.5 867.1MHz, SF9BW125, 4/5CR
2026-05-02 11:16:23 19.875°C 69% 3.33V v4 52.0949 / 5.10278 20842 ttn.v3 3.428km -108 -5 867.9MHz, SF9BW125, 4/5CR
2026-05-02 10:44:31 18.8125°C 64.4375% 3.33V v4 52.0949 / 5.10278 20840 ttn.v3 3.428km -108 -1 867.7MHz, SF9BW125, 4/5CR
2026-05-02 09:08:57 16.0625°C 61% 3.34V v4 52.0949 / 5.10278 20834 ttn.v3 3.428km -109 -3 867.1MHz, SF9BW125, 4/5CR
- -124 -9.5 867.1MHz, SF9BW125, 4/5CR
2026-05-02 08:37:06 15.625°C 56.6875% 3.33V v4 52.0949 / 5.10278 20832 ttn.v3 3.428km -107 0.5 867.9MHz, SF9BW125, 4/5CR
2026-05-02 08:21:11 15.1875°C 55.25% 3.33V v4 52.0949 / 5.10278 20831 ttn.v3 3.428km -109 -3.75 868.1MHz, SF9BW125, 4/5CR
2026-05-02 08:05:16 14.875°C 54.875% 3.34V v4 52.0949 / 5.10278 20830 ttn.v3 3.428km -105 -5.75 867.7MHz, SF9BW125, 4/5CR
2026-05-02 07:01:36 13.75°C 55.75% 3.34V v4 52.0949 / 5.10278 20826 ttn.v3 3.428km -104 -6.5 867.3MHz, SF9BW125, 4/5CR
2026-05-02 06:29:50 13.625°C 55.75% 3.33V v4 52.0949 / 5.10266 20824 ttn.v3 3.436km -107 -1.75 867.1MHz, SF9BW125, 4/5CR
2026-05-02 05:42:06 13.625°C 54.875% 3.33V v4 52.0949 / 5.10266 20821 ttn.v3 3.436km -97 -13.25 868.3MHz, SF9BW125, 4/5CR
2026-05-02 04:22:32 14.375°C 52.625% 3.33V v4 52.0949 / 5.10266 20816 ttn.v3 3.436km -105 -7.5 867.3MHz, SF9BW125, 4/5CR
2026-05-02 03:50:42 14.6875°C 50.75% 3.33V v4 52.0949 / 5.10266 20814 ttn.v3 3.436km -110 -11 867.1MHz, SF9BW125, 4/5CR
2026-05-02 01:59:15 16°C 45.6875% 3.34V v4 52.0949 / 5.10266 20807 ttn.v3 3.436km -109 -5.75 868.1MHz, SF9BW125, 4/5CR
2026-05-02 01:11:28 16.8125°C 43.5% 3.34V v4 52.0949 / 5.10266 20804 ttn.v3 3.436km -111 -4.5 867.1MHz, SF9BW125, 4/5CR
2026-05-02 00:23:41 17.4375°C 41.6875% 3.33V v4 52.0949 / 5.10266 20801 ttn.v3 3.436km -103 -6.75 868.1MHz, SF9BW125, 4/5CR
2026-05-02 00:07:45 17.5625°C 41.375% 3.33V v4 52.0949 / 5.10266 20800 ttn.v3 3.436km -109 -9.75 867.7MHz, SF9BW125, 4/5CR
2026-05-01 22:48:04 18.8125°C 37.8125% 3.33V v4 52.0949 / 5.10266 20795 ttn.v3 3.436km -109 -3.5 868.1MHz, SF9BW125, 4/5CR
2026-05-01 22:32:08 19.125°C 37% 3.33V v4 52.0949 / 5.10266 20794 ttn.v3 3.436km -110 -7.25 867.1MHz, SF9BW125, 4/5CR
2026-05-01 22:00:15 19.5625°C 35.5625% 3.33V v4 52.0949 / 5.10266 20792 ttn.v3 3.436km -109 -0.75 867.9MHz, SF9BW125, 4/5CR
2026-05-01 21:28:21 20.25°C 33.3125% 3.33V v4 52.0949 / 5.10266 20790 ttn.v3 3.436km -107 -3.5 867.7MHz, SF9BW125, 4/5CR
2026-05-01 19:52:33 24.9375°C 26.9375% 3.33V v4 52.0949 / 5.10266 20784 ttn.v3 3.436km -104 -3.5 867.1MHz, SF9BW125, 4/5CR
- -123 -7.75 867.1MHz, SF9BW125, 4/5CR
2026-05-01 19:20:34 27°C 24.1875% 3.33V v4 52.0949 / 5.10266 20782 ttn.v3 3.436km -110 -3.5 867.9MHz, SF9BW125, 4/5CR
2026-05-01 18:48:35 27.125°C 22.6875% 3.33V v4 52.0949 / 5.10266 20780 ttn.v3 3.436km -107 -2.75 867.7MHz, SF9BW125, 4/5CR
2026-05-01 17:44:29 34.375°C 16.9375% 3.33V v4 52.0949 / 5.10266 20776 ttn.v3 3.436km -109 -1.75 867.3MHz, SF9BW125, 4/5CR
2026-05-01 17:12:23 34.1875°C 18.25% 3.33V v4 52.0949 / 5.10266 20774 ttn.v3 3.436km -110 -2 867.1MHz, SF9BW125, 4/5CR
2026-05-01 16:40:19 32.25°C 20.8125% 3.33V v4 52.0949 / 5.10266 20772 ttn.v3 3.436km -103 -6.25 867.9MHz, SF9BW125, 4/5CR
2026-05-01 16:08:17 30.3125°C 23.125% 3.33V v4 52.0949 / 5.10266 20770 ttn.v3 - -124 -9.25 867.7MHz, SF9BW125, 4/5CR
2026-05-01 15:04:19 25.4375°C 25.5625% 3.33V v4 52.0949 / 5.10266 20766 ttn.v3 3.436km -108 -6.5 867.3MHz, SF9BW125, 4/5CR
2026-05-01 14:32:21 24.8125°C 24.5625% 3.33V v4 52.0949 / 5.10266 20764 ttn.v3 3.436km -107 -3.25 867.1MHz, SF9BW125, 4/5CR
2026-05-01 14:00:24 24.0625°C 28.0625% 3.33V v4 52.0949 / 5.10266 20762 ttn.v3 3.436km -104 -9.25 867.9MHz, SF9BW125, 4/5CR
2026-05-01 11:52:43 20.3125°C 31.75% 3.33V v4 52.0949 / 5.10266 20754 ttn.v3 3.436km -109 -6.75 867.1MHz, SF9BW125, 4/5CR
2026-05-01 11:20:50 18.625°C 33.75% 3.33V v4 52.0949 / 5.10266 20752 ttn.v3 3.436km -110 -3.75 867.9MHz, SF9BW125, 4/5CR
2026-05-01 10:33:03 16.5°C 40.3125% 3.33V v4 52.0949 / 5.10266 20749 ttn.v3 - -115 -14 868.3MHz, SF9BW125, 4/5CR
2026-05-01 09:13:28 13.125°C 51.625% 3.33V v4 52.0949 / 5.10266 20744 ttn.v3 3.436km -110 -6.25 867.1MHz, SF9BW125, 4/5CR
2026-05-01 08:25:45 12.375°C 53.1875% 3.34V v4 52.0949 / 5.10266 20741 ttn.v3 3.436km -108 -7.75 868.1MHz, SF9BW125, 4/5CR
2026-05-01 06:34:27 11.25°C 55.9375% 3.34V v4 52.0949 / 5.10266 20734 ttn.v3 3.436km -105 -10.25 867.1MHz, SF9BW125, 4/5CR
2026-05-01 06:02:39 11.4375°C 54.4375% 3.33V v4 52.0949 / 5.10266 20732 ttn.v3 3.436km -109 0.75 867.9MHz, SF9BW125, 4/5CR
2026-05-01 05:16:13 11.75°C 51.75% 3.33V v4 52.0949 / 5.10266 20729 ttn.v3 - -116 -17.8 868.1MHz, SF12BW125, 4/5CR
2026-05-01 03:55:30 12.5625°C 49.3125% 3.33V v4 52.0949 / 5.10275 20724 ttn.v3 3.43km -109 -4.75 867.1MHz, SF9BW125, 4/5CR
2026-05-01 03:39:36 12.75°C 49.5% 3.34V v4 52.0949 / 5.10275 20723 ttn.v3 3.43km -107 -3 868.1MHz, SF9BW125, 4/5CR
2026-05-01 02:04:09 13.875°C 45.8125% 3.33V v4 52.0949 / 5.10275 20717 ttn.v3 3.43km -102 -13.25 868.1MHz, SF9BW125, 4/5CR
2026-05-01 01:16:25 14.4375°C 44.9375% 3.33V v4 52.0949 / 5.10275 20714 ttn.v3 3.43km -110 -6.25 867.1MHz, SF9BW125, 4/5CR
2026-05-01 00:44:35 14.75°C 42.0625% 3.33V v4 52.0949 / 5.10275 20712 ttn.v3 3.43km -110 0.75 867.9MHz, SF9BW125, 4/5CR
2026-05-01 00:28:40 14.875°C 42.1875% 3.33V v4 52.0949 / 5.10275 20711 ttn.v3 3.43km -104 -3.25 868.1MHz, SF9BW125, 4/5CR
2026-05-01 00:12:45 15.0625°C 41.1875% 3.33V v4 52.0949 / 5.10275 20710 ttn.v3 3.43km -110 -5.25 867.7MHz, SF9BW125, 4/5CR
2026-04-30 22:53:08 16.125°C 37% 3.33V v4 52.0949 / 5.10275 20705 ttn.v3 3.43km -108 -6 868.1MHz, SF9BW125, 4/5CR
2026-04-30 22:37:13 16.3125°C 35.625% 3.33V v4 52.0949 / 5.10275 20704 ttn.v3 3.43km -110 -3.25 867.1MHz, SF9BW125, 4/5CR
2026-04-30 22:05:22 16.875°C 33.5625% 3.33V v4 52.0949 / 5.10275 20702 ttn.v3 3.43km -99 -10 867.9MHz, SF9BW125, 4/5CR
2026-04-30 21:49:26 17.125°C 32.625% 3.33V v4 52.0949 / 5.10275 20701 ttn.v3 - -118 -12 868.3MHz, SF9BW125, 4/5CR
2026-04-30 21:33:30 17.4375°C 31% 3.33V v4 52.0949 / 5.10275 20700 ttn.v3 3.43km -98 -8 867.7MHz, SF9BW125, 4/5CR
- -119 -12.5 867.7MHz, SF9BW125, 4/5CR
2026-04-30 20:29:45 19.5°C 27.6875% 3.33V v4 52.0949 / 5.10275 20696 ttn.v3 3.43km -107 -7.5 867.3MHz, SF9BW125, 4/5CR
2026-04-30 19:57:51 20.6875°C 25.4375% 3.33V v4 52.0949 / 5.10275 20694 ttn.v3 3.43km -105 -3 867.1MHz, SF9BW125, 4/5CR
- -125 -9.75 867.1MHz, SF9BW125, 4/5CR
2026-04-30 19:25:56 22.125°C 24% 3.33V v4 52.0949 / 5.10275 20692 ttn.v3 3.43km -109 -1.25 867.9MHz, SF9BW125, 4/5CR
2026-04-30 18:54:00 23.6875°C 22.25% 3.33V v4 52.0949 / 5.10275 20690 ttn.v3 3.43km -107 -5 867.7MHz, SF9BW125, 4/5CR
2026-04-30 17:17:55 32.5°C 18% 3.33V v4 52.0949 / 5.10275 20684 ttn.v3 3.43km -107 -2.75 867.1MHz, SF9BW125, 4/5CR
2026-04-30 17:01:54 31.4375°C 18.6875% 3.33V v4 52.0949 / 5.10275 20683 ttn.v3 - -116 -13.5 868.3MHz, SF9BW125, 4/5CR
2026-04-30 16:45:53 29.9375°C 19.3125% 3.33V v4 52.0949 / 5.10275 20682 ttn.v3 - -119 -11.8 867.9MHz, SF9BW125, 4/5CR
2026-04-30 15:09:59 22.9375°C 23.5% 3.33V v4 52.0949 / 5.10275 20676 ttn.v3 3.43km -105 -9.75 867.3MHz, SF9BW125, 4/5CR
2026-04-30 14:54:01 22.5°C 24.375% 3.33V v4 52.0949 / 5.10275 20675 ttn.v3 3.43km -105 -5.5 868.1MHz, SF9BW125, 4/5CR
2026-04-30 14:38:03 22.1875°C 25.5% 3.33V v4 52.0949 / 5.10275 20674 ttn.v3 3.43km -103 -8.25 867.1MHz, SF9BW125, 4/5CR
2026-04-30 13:34:14 21°C 25.3125% 3.33V v4 52.0949 / 5.10275 20670 ttn.v3 3.43km -105 -11 867.7MHz, SF9BW125, 4/5CR
2026-04-30 11:58:35 17.8125°C 27.5% 3.33V v4 52.0949 / 5.10275 20664 ttn.v3 3.43km -107 -3.75 867.1MHz, SF9BW125, 4/5CR
2026-04-30 11:42:39 17.3125°C 29.4375% 3.33V v4 52.0949 / 5.10275 20663 ttn.v3 3.43km -104 -3.25 868.1MHz, SF9BW125, 4/5CR
2026-04-30 11:26:44 16.625°C 29.9375% 3.33V v4 52.0949 / 5.10275 20662 ttn.v3 3.43km -105 -7 867.9MHz, SF9BW125, 4/5CR
2026-04-30 10:54:53 15.125°C 32.6875% 3.33V v4 52.0949 / 5.10275 20660 ttn.v3 3.43km -108 -9.5 867.7MHz, SF9BW125, 4/5CR
2026-04-30 10:07:09 13.0625°C 37% 3.33V v4 52.0949 / 5.10275 20657 ttn.v3 3.43km -96 -14.25 868.1MHz, SF9BW125, 4/5CR
2026-04-30 09:19:27 11.125°C 42.9375% 3.34V v4 52.0949 / 5.10275 20654 ttn.v3 3.43km -109 -5.75 867.1MHz, SF9BW125, 4/5CR
2026-04-30 08:47:40 10.3125°C 47.8125% 3.33V v4 52.0949 / 5.10275 20652 ttn.v3 3.43km -104 -3 867.9MHz, SF9BW125, 4/5CR
2026-04-30 08:31:46 10°C 49.25% 3.33V v4 52.0949 / 5.10275 20651 ttn.v3 3.43km -105 -5.5 868.1MHz, SF9BW125, 4/5CR
2026-04-30 08:15:53 9.75°C 50.1875% 3.34V v4 52.0949 / 5.10275 20650 ttn.v3 3.43km -107 -4 867.7MHz, SF9BW125, 4/5CR
2026-04-30 06:56:26 8.9375°C 53.4375% 3.34V v4 52.0949 / 5.10275 20645 ttn.v3 3.43km -109 -7.25 868.1MHz, SF9BW125, 4/5CR
2026-04-30 06:08:47 9.1875°C 52.125% 3.33V v4 52.0949 / 5.10275 20642 ttn.v3 3.43km -109 -0.25 867.9MHz, SF9BW125, 4/5CR
2026-04-30 05:37:00 9.5625°C 51.375% 3.34V v4 52.0949 / 5.10275 20640 ttn.v3 3.43km -109 -6 867.7MHz, SF9BW125, 4/5CR
2026-04-30 04:01:39 10.625°C 48.0625% 3.33V v4 52.0949 / 5.10275 20634 ttn.v3 3.43km -110 -7.25 867.1MHz, SF9BW125, 4/5CR
- -126 -12.25 867.1MHz, SF9BW125, 4/5CR
2026-04-30 03:46:35 10.8125°C 47.4375% 3.33V v4 52.0949 / 5.10275 20633 ttn.v3 3.43km -105 -4.75 868.1MHz, SF12BW125, 4/5CR
- -116 -18.5 868.1MHz, SF12BW125, 4/5CR
2026-04-30 03:29:54 11.0625°C 46.875% 3.34V v4 52.0948 / 5.10275 20632 ttn.v3 3.43km -104 -2 867.9MHz, SF9BW125, 4/5CR
2026-04-30 03:14:00 11.25°C 46.25% 3.34V v4 52.0948 / 5.10275 20631 ttn.v3 - -118 -14 868.5MHz, SF9BW125, 4/5CR
2026-04-30 02:58:06 11.4375°C 46.125% 3.34V v4 52.0948 / 5.10275 20630 ttn.v3 3.43km -103 -10.5 867.7MHz, SF9BW125, 4/5CR
2026-04-30 01:22:42 12.375°C 43.4375% 3.33V v4 52.0948 / 5.10275 20624 ttn.v3 3.43km -108 -3.5 867.1MHz, SF9BW125, 4/5CR
2026-04-30 00:50:53 12.8125°C 41.875% 3.33V v4 52.0948 / 5.10275 20622 ttn.v3 3.43km -109 0.25 867.9MHz, SF9BW125, 4/5CR
2026-04-29 22:43:36 14.3125°C 39.875% 3.33V v4 52.0948 / 5.10275 20614 ttn.v3 3.43km -108 -9.5 867.1MHz, SF9BW125, 4/5CR
2026-04-29 22:27:41 14.5625°C 39.25% 3.33V v4 52.0948 / 5.10275 20613 ttn.v3 - -118 -14 868.5MHz, SF9BW125, 4/5CR
2026-04-29 21:55:51 15.1875°C 37.25% 3.33V v4 52.0948 / 5.10275 20611 ttn.v3 3.43km -95 -12.75 868.3MHz, SF9BW125, 4/5CR
2026-04-29 20:52:09 17.0625°C 33.125% 3.33V v4 52.0948 / 5.10275 20607 ttn.v3 - -119 -11.8 868.5MHz, SF9BW125, 4/5CR
2026-04-29 20:04:21 19°C 29.9375% 3.33V v4 52.0948 / 5.10275 20604 ttn.v3 3.43km -104 -11.75 867.1MHz, SF9BW125, 4/5CR
2026-04-29 19:48:24 19.75°C 28.3125% 3.33V v4 52.0948 / 5.10275 20603 ttn.v3 - -115 -10.3 868.1MHz, SF9BW125, 4/5CR
2026-04-29 19:00:33 21.75°C 24.5625% 3.33V v4 52.0948 / 5.10275 20600 ttn.v3 3.43km -107 -7.75 867.7MHz, SF9BW125, 4/5CR
2026-04-29 18:44:35 22.5625°C 24% 3.33V v4 52.0948 / 5.10275 20599 ttn.v3 - -116 -12 868.3MHz, SF9BW125, 4/5CR
2026-04-29 18:12:37 25.375°C 20.8125% 3.33V v4 52.0948 / 5.10275 20597 ttn.v3 3.43km -104 -9 868.1MHz, SF9BW125, 4/5CR
2026-04-29 17:24:34 31.8125°C 18.375% 3.33V v4 52.0948 / 5.10275 20594 ttn.v3 3.43km -107 -6.25 867.1MHz, SF9BW125, 4/5CR
2026-04-29 16:52:33 29.75°C 19.5625% 3.33V v4 52.0948 / 5.10275 20592 ttn.v3 3.43km -110 -4 867.9MHz, SF9BW125, 4/5CR
2026-04-29 16:36:33 27.875°C 21.4375% 3.33V v4 52.0948 / 5.10275 20591 ttn.v3 3.43km -104 -7 868.1MHz, SF9BW125, 4/5CR
2026-04-29 15:00:42 21.75°C 28.375% 3.33V v4 52.0948 / 5.10275 20585 ttn.v3 3.43km -104 -9 868.1MHz, SF9BW125, 4/5CR
2026-04-29 14:12:50 21.1875°C 28.9375% 3.33V v4 52.0948 / 5.10275 20582 ttn.v3 3.43km -109 -1.5 867.9MHz, SF9BW125, 4/5CR
2026-04-29 13:40:56 20.75°C 32.5% 3.33V v4 52.0948 / 5.10275 20580 ttn.v3 3.43km -101 -9.25 867.7MHz, SF9BW125, 4/5CR
- -123 -10.75 867.7MHz, SF9BW125, 4/5CR
2026-04-29 12:05:17 17.875°C 37.9375% 3.33V v4 52.0948 / 5.10275 20574 ttn.v3 3.43km -103 -4.25 867.1MHz, SF9BW125, 4/5CR
2026-04-29 11:49:22 17.1875°C 38.375% 3.34V v4 52.0948 / 5.10275 20573 ttn.v3 3.43km -105 -7.75 868.1MHz, SF9BW125, 4/5CR
2026-04-29 11:33:26 16.5625°C 40.9375% 3.33V v4 52.0948 / 5.10275 20572 ttn.v3 3.43km -107 -7 867.9MHz, SF9BW125, 4/5CR
2026-04-29 09:57:58 12.1875°C 50.25% 3.34V v4 52.0948 / 5.10275 20566 ttn.v3 3.43km -104 -11.5 867.3MHz, SF9BW125, 4/5CR
2026-04-29 09:26:10 10.6875°C 52.6875% 3.33V v4 52.0948 / 5.10275 20564 ttn.v3 3.43km -109 -9 867.1MHz, SF9BW125, 4/5CR
2026-04-29 08:54:24 9.5625°C 54.5625% 3.34V v4 52.0948 / 5.10275 20562 ttn.v3 3.43km -103 -1.5 867.9MHz, SF9BW125, 4/5CR
2026-04-29 08:38:30 9.25°C 55.0625% 3.33V v4 52.0948 / 5.10275 20561 ttn.v3 3.43km -109 -3.75 868.1MHz, SF9BW125, 4/5CR
2026-04-29 07:03:11 8.625°C 54.5% 3.33V v4 52.0948 / 5.10275 20555 ttn.v3 3.43km -103 -5.75 868.1MHz, SF9BW125, 4/5CR
2026-04-29 06:47:18 8.75°C 54.5625% 3.34V v4 52.0948 / 5.10275 20554 ttn.v3 3.43km -107 -8.5 867.1MHz, SF9BW125, 4/5CR
2026-04-29 06:15:32 9.0625°C 53.9375% 3.34V v4 52.0948 / 5.10275 20552 ttn.v3 3.43km -107 -1.75 867.9MHz, SF9BW125, 4/5CR
2026-04-29 05:43:45 9.3125°C 52.625% 3.34V v4 52.0948 / 5.10275 20550 ttn.v3 3.43km -107 -3 867.7MHz, SF9BW125, 4/5CR
2026-04-29 04:40:12 9.9375°C 51% 3.33V v4 52.0948 / 5.10275 20546 ttn.v3 3.43km -103 -5.75 867.3MHz, SF9BW125, 4/5CR
2026-04-29 04:08:25 10.3125°C 49.4375% 3.34V v4 52.0948 / 5.10275 20544 ttn.v3 3.43km -107 -4 867.1MHz, SF9BW125, 4/5CR
2026-04-29 03:52:31 10.4375°C 48.5625% 3.34V v4 52.0948 / 5.10275 20543 ttn.v3 3.43km -104 -7.5 868.1MHz, SF9BW125, 4/5CR
2026-04-29 03:36:38 10.625°C 47.9375% 3.33V v4 52.0948 / 5.10275 20542 ttn.v3 3.43km -107 -7.75 867.9MHz, SF9BW125, 4/5CR
2026-04-29 03:04:50 10.875°C 48.375% 3.33V v4 52.0948 / 5.10275 20540 ttn.v3 3.43km -105 -10.25 867.7MHz, SF9BW125, 4/5CR
2026-04-29 02:18:12 11.25°C 49.0625% 3.33V v4 52.0948 / 5.10275 20537 ttn.v3 3.43km -105 -4.75 868.1MHz, SF12BW125, 4/5CR
2026-04-29 02:01:18 11.4375°C 49.4375% 3.33V v4 52.0948 / 5.10275 20536 ttn.v3 3.43km -107 -3.5 867.3MHz, SF9BW125, 4/5CR
2026-04-29 00:57:42 12.25°C 46.5625% 3.33V v4 52.0948 / 5.10275 20532 ttn.v3 3.43km -111 -0.75 867.9MHz, SF9BW125, 4/5CR
2026-04-28 22:50:27 14.1875°C 40.1875% 3.33V v4 52.0948 / 5.10275 20524 ttn.v3 3.43km -108 -3.25 867.1MHz, SF9BW125, 4/5CR
2026-04-28 22:18:37 14.8125°C 39.3125% 3.33V v4 52.0948 / 5.10275 20522 ttn.v3 3.43km -107 -1.25 867.9MHz, SF9BW125, 4/5CR
2026-04-28 21:46:47 15.4375°C 38.8125% 3.33V v4 52.0948 / 5.10275 20520 ttn.v3 3.43km -109 -5.25 867.7MHz, SF9BW125, 4/5CR
- -126 -14.25 867.7MHz, SF9BW125, 4/5CR
2026-04-28 21:30:51 15.8125°C 38.125% 3.33V v4 52.0948 / 5.10275 20519 ttn.v3 3.43km -109 -8 868.1MHz, SF9BW125, 4/5CR
2026-04-28 20:43:05 17.3125°C 35.1875% 3.33V v4 52.0948 / 5.10275 20516 ttn.v3 3.43km -99 -5.75 867.3MHz, SF9BW125, 4/5CR
2026-04-28 20:11:12 18.5°C 33.75% 3.33V v4 52.0948 / 5.10275 20514 ttn.v3 3.43km -108 -0.25 867.1MHz, SF9BW125, 4/5CR
2026-04-28 19:55:16 19.25°C 32.5625% 3.33V v4 52.0948 / 5.10275 20513 ttn.v3 3.43km -104 -12.75 868.1MHz, SF9BW125, 4/5CR
2026-04-28 19:39:19 20°C 32.125% 3.33V v4 52.0948 / 5.10275 20512 ttn.v3 3.43km -108 -4.25 867.9MHz, SF9BW125, 4/5CR
2026-04-28 18:03:31 26.625°C 22.9375% 3.33V v4 52.0948 / 5.10275 20506 ttn.v3 3.43km -102 -7 867.3MHz, SF9BW125, 4/5CR
2026-04-28 17:31:29 30.5625°C 23.75% 3.33V v4 52.0948 / 5.10275 20504 ttn.v3 3.43km -107 -3.25 867.1MHz, SF9BW125, 4/5CR
2026-04-28 16:59:28 29.875°C 24.25% 3.33V v4 52.0948 / 5.10275 20502 ttn.v3 3.43km -107 0.25 867.9MHz, SF9BW125, 4/5CR
2026-04-28 16:43:28 27.75°C 27.0625% 3.33V v4 52.0948 / 5.10275 20501 ttn.v3 3.43km -109 -4.5 868.1MHz, SF9BW125, 4/5CR
2026-04-28 16:27:29 26.8125°C 26.3125% 3.33V v4 52.0948 / 5.10275 20500 ttn.v3 3.43km -102 -6 867.7MHz, SF9BW125, 4/5CR
2026-04-28 15:23:36 22.75°C 31.3125% 3.33V v4 52.0948 / 5.10275 20496 ttn.v3 3.43km -103 -4.5 867.3MHz, SF9BW125, 4/5CR
2026-04-28 14:51:41 21.375°C 34% 3.33V v4 52.0948 / 5.10275 20494 ttn.v3 3.43km -103 -6 867.1MHz, SF9BW125, 4/5CR
2026-04-28 14:19:47 20.875°C 34.375% 3.33V v4 52.0948 / 5.10275 20492 ttn.v3 3.43km -110 -2.25 867.9MHz, SF9BW125, 4/5CR
2026-04-28 12:44:08 18.625°C 47.4375% 3.33V v4 52.0948 / 5.10275 20486 ttn.v3 3.43km -105 -2.75 867.3MHz, SF9BW125, 4/5CR
2026-04-28 11:40:24 16.3125°C 56.625% 3.33V v4 52.0948 / 5.10275 20482 ttn.v3 3.43km -105 -1 867.9MHz, SF9BW125, 4/5CR
2026-04-28 11:08:34 14.625°C 60.6875% 3.34V v4 52.0948 / 5.10275 20480 ttn.v3 3.43km -103 -3.5 867.7MHz, SF9BW125, 4/5CR
2026-04-28 10:20:51 12.5°C 66.125% 3.33V v4 52.0948 / 5.10275 20477 ttn.v3 3.43km -104 -4 868.1MHz, SF9BW125, 4/5CR
2026-04-28 10:04:57 12.1875°C 67.625% 3.34V v4 52.0948 / 5.10275 20476 ttn.v3 3.43km -101 -6.75 867.3MHz, SF9BW125, 4/5CR
2026-04-28 09:33:09 11.125°C 71.625% 3.33V v4 52.0948 / 5.10275 20474 ttn.v3 3.43km -110 -2.75 867.1MHz, SF9BW125, 4/5CR
2026-04-28 09:01:22 9.875°C 76.5% 3.34V v4 52.0948 / 5.10275 20472 ttn.v3 3.43km -104 -7.25 867.9MHz, SF9BW125, 4/5CR
2026-04-28 08:29:36 9.1875°C 78.5% 3.34V v4 52.0948 / 5.10275 20470 ttn.v3 3.43km -109 -3.5 867.7MHz, SF9BW125, 4/5CR
2026-04-28 07:26:03 8.5625°C 83.875% 3.34V v4 52.0948 / 5.10275 20466 ttn.v3 3.43km -105 -4.75 867.3MHz, SF9BW125, 4/5CR
2026-04-28 06:54:17 8.4375°C 84.1875% 3.34V v4 52.0948 / 5.10275 20464 ttn.v3 3.43km -98 -5.5 867.1MHz, SF9BW125, 4/5CR
2026-04-28 06:22:31 8.5625°C 83.9375% 3.34V v4 52.0948 / 5.10275 20462 ttn.v3 3.43km -104 -5.5 867.9MHz, SF9BW125, 4/5CR
2026-04-28 05:34:52 9.3125°C 79.5625% 3.34V v4 52.0948 / 5.10275 20459 ttn.v3 3.43km -107 -7.75 868.1MHz, SF9BW125, 4/5CR
2026-04-28 04:47:12 9.6875°C 77.6875% 3.33V v4 52.0948 / 5.10275 20456 ttn.v3 3.43km -107 -7 867.3MHz, SF9BW125, 4/5CR
2026-04-28 04:15:25 9.9375°C 77.1875% 3.33V v4 52.0948 / 5.10275 20454 ttn.v3 3.43km -107 -3.5 867.1MHz, SF9BW125, 4/5CR
2026-04-28 03:59:31 10.0625°C 76.5% 3.34V v4 52.0948 / 5.10275 20453 ttn.v3 3.43km -102 -4 868.1MHz, SF9BW125, 4/5CR
2026-04-28 03:11:51 10.1875°C 74.3125% 3.34V v4 52.0948 / 5.10275 20450 ttn.v3 3.43km -107 -5.75 867.7MHz, SF9BW125, 4/5CR
2026-04-28 02:08:17 10.625°C 73.0625% 3.33V v4 52.0948 / 5.10275 20446 ttn.v3 3.43km -95 -6.25 867.3MHz, SF9BW125, 4/5CR
2026-04-28 01:36:29 11.125°C 74.25% 3.33V v4 52.0948 / 5.10275 20444 ttn.v3 3.43km -103 -4.5 867.1MHz, SF9BW125, 4/5CR
2026-04-28 01:04:41 11.625°C 75.125% 3.33V v4 52.0948 / 5.10275 20442 ttn.v3 3.43km -107 -0.25 867.9MHz, SF9BW125, 4/5CR
2026-04-28 00:50:06 11.75°C 74.5625% 3.33V v4 52.0948 / 5.10275 20441 ttn.v3 3.43km -110 -7 868.1MHz, SF12BW125, 4/5CR

Message count: 200
Node count: 1

Messages per node

Number of messages in list aboveNodes
200

Statistics per gateway

GatewayNumber of messagesNumber of nodesNodes
1851 (3.43km)
151
151

Filter by dataset